createdAt,value
2022-08-04T00:11:32.588Z,4.20
2022-08-04T00:12:33.676Z,4.70
2022-08-04T00:13:33.494Z,4.20
2022-08-04T00:14:32.887Z,5.60
2022-08-04T01:28:34.254Z,4.80
2022-08-04T01:28:55.575Z,4.50
2022-08-04T01:30:00.861Z,4.10
2022-08-04T02:39:56.301Z,5.40
2022-08-04T02:41:11.173Z,5.90
2022-08-04T02:41:43.544Z,5.20
2022-08-04T03:06:21.895Z,5.40
2022-08-04T03:07:15.878Z,5.40
2022-08-04T03:07:49.804Z,5.20
2022-08-04T03:08:47.028Z,5.50
2022-08-04T03:09:46.093Z,6.00
2022-08-04T03:28:02.081Z,5.80
2022-08-04T03:28:29.630Z,6.30
2022-08-04T03:29:36.131Z,6.10
2022-08-04T03:30:28.620Z,5.50
2022-08-04T03:31:26.141Z,5.60
2022-08-04T03:37:25.248Z,5.20
2022-08-04T04:51:32.648Z,5.90
2022-08-04T04:52:44.678Z,6.70
2022-08-04T04:53:18.435Z,6.80
2022-08-04T04:54:18.353Z,5.80
2022-08-04T04:57:08.322Z,6.40
2022-08-04T04:57:54.079Z,6.50
2022-08-04T04:58:45.499Z,6.40
2022-08-04T04:59:47.566Z,6.20
2022-08-04T05:04:11.725Z,5.80
2022-08-04T05:05:10.698Z,6.20
2022-08-04T05:06:10.673Z,6.10
2022-08-04T05:07:10.663Z,6.60
2022-08-04T05:08:44.889Z,6.10
2022-08-04T05:09:11.646Z,6.10
2022-08-04T05:10:10.639Z,6.50
2022-08-04T05:11:10.619Z,6.00
2022-08-04T05:12:53.820Z,6.30
2022-08-04T05:14:36.960Z,6.30
2022-08-04T05:14:38.680Z,6.10
2022-08-04T05:15:11.618Z,6.00
2022-08-04T05:16:10.568Z,7.20
2022-08-04T05:17:10.555Z,6.60
2022-08-04T05:18:10.541Z,6.90
2022-08-04T05:19:10.539Z,6.50
2022-08-04T05:20:10.541Z,6.80
2022-08-04T05:21:10.520Z,7.10
2022-08-04T05:22:14.451Z,6.90
2022-08-04T05:23:10.499Z,7.00
2022-08-04T05:24:10.486Z,6.70
2022-08-04T05:25:10.488Z,6.70
2022-08-04T05:26:10.458Z,7.00
2022-08-04T05:27:10.457Z,6.60
2022-08-04T05:28:10.442Z,6.70
2022-08-04T05:29:10.435Z,6.40
2022-08-04T05:30:10.438Z,6.80
2022-08-04T05:31:10.416Z,6.80
2022-08-04T05:32:10.402Z,6.30
2022-08-04T05:33:10.394Z,6.40
2022-08-04T05:34:10.379Z,6.40
2022-08-04T05:35:10.391Z,6.50
2022-08-04T05:36:23.433Z,7.00
2022-08-04T05:37:11.353Z,6.60
2022-08-04T05:38:10.337Z,6.70
2022-08-04T05:39:10.382Z,6.80
2022-08-04T05:40:10.333Z,6.10
2022-08-04T05:41:10.309Z,6.20
2022-08-04T05:42:10.304Z,6.40
2022-08-04T05:43:10.288Z,6.20
2022-08-04T05:44:10.270Z,6.50
2022-08-04T05:45:10.274Z,6.50
2022-08-04T05:46:10.266Z,6.90
2022-08-04T05:47:10.245Z,6.30
2022-08-04T05:48:10.229Z,7.00
2022-08-04T05:49:10.228Z,6.20
2022-08-04T05:50:10.227Z,7.00
2022-08-04T05:51:10.216Z,7.30
2022-08-04T05:52:10.189Z,6.60
2022-08-04T05:53:10.187Z,7.10
2022-08-04T05:54:10.171Z,7.60
2022-08-04T05:55:10.154Z,8.10
2022-08-04T05:56:10.153Z,8.30
2022-08-04T05:57:10.136Z,8.50
2022-08-04T05:58:10.120Z,7.90
2022-08-04T05:59:10.117Z,8.90
2022-08-04T06:00:31.840Z,8.90
2022-08-04T06:01:11.106Z,8.70
2022-08-04T06:02:10.127Z,8.70
2022-08-04T06:03:10.074Z,9.20
2022-08-04T06:04:11.459Z,9.30
2022-08-04T06:05:10.157Z,9.60
2022-08-04T06:06:10.042Z,8.90
2022-08-04T06:07:10.034Z,8.90
2022-08-04T06:08:13.498Z,8.70
2022-08-04T06:09:10.010Z,9.00
2022-08-04T06:10:09.992Z,8.80
2022-08-04T06:11:09.995Z,8.90
2022-08-04T06:12:09.993Z,8.70
2022-08-04T06:13:10.003Z,8.00
2022-08-04T06:14:10.946Z,8.50
2022-08-04T06:15:09.954Z,8.30
2022-08-04T06:16:17.870Z,8.70
2022-08-04T06:17:30.262Z,8.90
2022-08-04T06:18:35.647Z,9.00
2022-08-04T06:20:03.830Z,9.40
2022-08-04T06:20:19.519Z,8.90
2022-08-04T06:21:16.166Z,8.70
2022-08-04T06:22:10.881Z,8.80
2022-08-04T06:23:10.012Z,8.10
2022-08-04T06:24:09.855Z,8.60
2022-08-04T06:25:09.841Z,8.80
2022-08-04T06:26:09.845Z,8.90
2022-08-04T06:27:09.822Z,8.80
2022-08-04T06:28:09.802Z,9.20
2022-08-04T06:29:09.795Z,9.10
2022-08-04T06:30:09.822Z,8.90
2022-08-04T06:32:27.559Z,9.00
2022-08-04T06:32:31.094Z,8.80
2022-08-04T06:33:10.764Z,8.70
2022-08-04T06:34:09.743Z,8.90
2022-08-04T06:35:09.829Z,8.90
2022-08-04T06:36:09.738Z,8.80
2022-08-04T06:37:09.826Z,8.60
2022-08-04T06:38:09.725Z,7.80
2022-08-04T06:39:09.761Z,7.50
2022-08-04T06:40:29.492Z,7.90
2022-08-04T06:41:10.710Z,7.30
2022-08-04T06:42:21.576Z,7.60
2022-08-04T06:43:10.813Z,7.60
2022-08-04T06:44:09.917Z,7.40
2022-08-04T06:45:12.047Z,8.40
2022-08-04T06:46:10.311Z,8.20
2022-08-04T06:47:09.733Z,6.90
2022-08-04T06:48:09.591Z,7.60
2022-08-04T06:49:09.619Z,7.30
2022-08-04T06:51:24.372Z,7.10
2022-08-04T06:51:26.910Z,7.20
2022-08-04T06:52:10.547Z,7.00
2022-08-04T06:53:09.593Z,7.00
2022-08-04T06:54:09.529Z,6.40
2022-08-04T06:55:09.524Z,7.30
2022-08-04T06:56:09.525Z,6.70
2022-08-04T06:57:09.498Z,7.70
2022-08-04T06:58:09.489Z,7.80
2022-08-04T06:59:09.483Z,7.60
2022-08-04T07:00:09.517Z,7.30
2022-08-04T07:02:26.941Z,7.30
2022-08-04T07:31:05.366Z,5.80
2022-08-04T07:31:38.380Z,5.30
2022-08-04T11:36:11.482Z,1.10
2022-08-04T11:36:36.339Z,1.20
2022-08-04T11:37:36.320Z,1.00
2022-08-04T11:38:36.311Z,0.90
2022-08-04T11:39:36.352Z,1.10
2022-08-04T11:40:36.293Z,1.00
2022-08-04T11:41:36.278Z,1.20
2022-08-04T11:42:36.273Z,1.20
2022-08-04T11:44:02.634Z,1.10
2022-08-04T11:44:37.265Z,1.00
2022-08-04T11:45:36.240Z,1.10
2022-08-04T11:46:36.232Z,1.00
2022-08-04T11:47:36.219Z,1.20
2022-08-04T11:48:36.214Z,1.20
2022-08-04T11:49:56.485Z,1.00
2022-08-04T11:50:37.197Z,1.40
2022-08-04T11:51:36.185Z,1.00
2022-08-04T11:52:36.179Z,1.30
2022-08-04T11:53:36.594Z,1.10
2022-08-04T11:54:36.170Z,1.20
2022-08-04T11:56:07.791Z,1.10
2022-08-04T11:56:38.030Z,1.20
2022-08-04T11:57:36.697Z,1.10
2022-08-04T11:58:36.123Z,1.30
2022-08-04T11:59:36.121Z,0.90
2022-08-04T12:00:36.104Z,1.10
2022-08-04T12:01:36.092Z,1.20
2022-08-04T12:02:36.130Z,1.30
2022-08-04T12:03:37.705Z,1.00
2022-08-04T12:04:36.084Z,1.10
2022-08-04T12:05:42.616Z,1.20
2022-08-04T12:06:36.538Z,1.20
2022-08-04T12:08:15.553Z,1.60
2022-08-04T12:08:36.041Z,1.00
2022-08-04T12:09:38.223Z,1.10
2022-08-04T12:10:41.696Z,1.30
2022-08-04T12:11:37.031Z,1.20
2022-08-04T12:12:36.007Z,1.10
2022-08-04T12:13:35.992Z,1.10
2022-08-04T12:14:35.996Z,1.20
2022-08-04T12:15:35.979Z,1.10
2022-08-04T12:17:52.706Z,1.10
2022-08-04T12:18:39.143Z,1.40
2022-08-04T12:20:03.440Z,1.50
2022-08-04T12:20:40.690Z,1.10
2022-08-04T12:21:35.923Z,1.30
2022-08-04T12:22:37.060Z,1.10
2022-08-04T12:23:39.561Z,1.50
2022-08-04T12:24:35.901Z,1.10
2022-08-04T12:25:35.894Z,2.30
2022-08-04T12:26:35.867Z,1.20
2022-08-04T12:27:54.766Z,1.20
2022-08-04T12:29:07.307Z,1.40
2022-08-04T12:29:36.864Z,1.40
2022-08-04T12:31:02.588Z,1.30
2022-08-04T12:31:36.829Z,1.20
2022-08-04T12:32:35.816Z,1.10
2022-08-04T12:34:02.852Z,1.40
2022-08-04T12:34:44.518Z,1.10
2022-08-04T12:35:36.035Z,1.40
2022-08-04T12:36:57.038Z,1.20
2022-08-04T12:37:40.442Z,1.20
2022-08-04T12:38:36.513Z,1.10
2022-08-04T12:39:35.814Z,1.20
2022-08-04T12:40:36.860Z,1.00
2022-08-04T12:41:35.984Z,1.10
2022-08-04T12:49:21.762Z,1.00
2022-08-04T12:49:47.519Z,1.20
2022-08-04T12:50:51.021Z,1.10
2022-08-04T12:54:47.000Z,1.00
2022-08-04T12:55:47.561Z,1.20
2022-08-04T12:56:44.126Z,1.40
2022-08-04T12:58:43.266Z,1.20
2022-08-04T12:58:44.685Z,1.30
2022-08-04T12:59:41.018Z,1.50
2022-08-04T13:02:06.826Z,1.30
2022-08-04T13:02:09.477Z,1.10
2022-08-04T13:02:42.056Z,1.40
2022-08-04T13:03:40.980Z,1.20
2022-08-04T13:04:41.847Z,1.70
2022-08-04T13:05:40.979Z,1.70
2022-08-04T13:06:40.953Z,1.50
2022-08-04T13:07:43.827Z,1.20
2022-08-04T13:08:40.983Z,1.40
2022-08-04T13:09:40.930Z,1.30
2022-08-04T13:10:40.931Z,1.20
2022-08-04T13:11:40.915Z,1.20
2022-08-04T13:12:40.905Z,1.00
2022-08-04T13:13:40.911Z,1.40
2022-08-04T13:14:40.877Z,1.40
2022-08-04T13:15:47.420Z,1.30
2022-08-04T13:16:41.866Z,1.20
2022-08-04T13:17:40.871Z,1.50
2022-08-04T13:18:40.859Z,1.30
2022-08-04T13:19:41.626Z,1.20
2022-08-04T13:20:40.903Z,1.40
2022-08-04T13:22:02.655Z,1.30
2022-08-04T13:22:55.906Z,1.40
2022-08-04T13:24:10.976Z,1.60
2022-08-04T13:24:56.569Z,1.40
2022-08-04T13:26:43.431Z,1.30
2022-08-04T13:26:54.638Z,1.40
2022-08-04T13:29:16.279Z,1.20
2022-08-04T13:29:16.801Z,1.30
2022-08-04T13:30:22.675Z,1.30
2022-08-04T13:32:39.948Z,1.40
2022-08-04T13:32:41.851Z,1.40
2022-08-04T13:33:43.997Z,1.70
2022-08-04T13:34:42.841Z,1.50
2022-08-04T13:35:55.516Z,1.10
2022-08-04T13:36:46.784Z,1.40
2022-08-04T13:38:13.653Z,1.30
2022-08-04T13:38:41.799Z,1.40
2022-08-04T13:39:55.575Z,1.40
2022-08-04T13:40:45.424Z,1.50
2022-08-04T13:42:04.816Z,1.40
2022-08-04T13:42:47.179Z,1.40
2022-08-04T13:44:18.280Z,1.50
2022-08-04T13:44:54.618Z,1.60
2022-08-04T13:45:42.729Z,1.50
2022-08-04T13:46:50.507Z,1.60
2022-08-04T13:47:45.488Z,1.40
2022-08-04T13:50:10.694Z,1.30
2022-08-04T13:50:13.959Z,1.40
2022-08-04T13:51:14.854Z,1.60
2022-08-04T13:52:12.802Z,1.50
2022-08-04T13:53:12.633Z,1.70
2022-08-04T13:54:13.695Z,1.40
2022-08-04T13:55:12.626Z,1.40
2022-08-04T13:56:12.637Z,1.30
2022-08-04T13:57:12.726Z,1.40
2022-08-04T13:58:16.491Z,1.50
2022-08-04T13:59:14.091Z,1.50
2022-08-04T14:00:32.985Z,1.40
2022-08-04T14:02:34.774Z,1.30
2022-08-04T14:02:36.292Z,1.60
2022-08-04T14:03:54.445Z,1.60
2022-08-04T14:04:37.298Z,1.50
2022-08-04T14:05:59.745Z,1.30
2022-08-04T14:06:41.158Z,1.50
2022-08-04T14:07:36.500Z,1.50
2022-08-04T14:08:36.334Z,1.30
2022-08-04T14:10:03.640Z,1.40
2022-08-04T14:14:41.113Z,1.30
2022-08-04T14:16:02.160Z,1.50
2022-08-04T14:16:58.277Z,1.30
2022-08-04T14:17:40.741Z,1.40
2022-08-04T14:20:09.358Z,1.40
2022-08-04T14:20:35.821Z,1.40
2022-08-04T14:21:18.656Z,1.40
2022-08-04T14:24:16.360Z,1.20
2022-08-04T14:24:18.901Z,1.50
2022-08-04T14:26:57.665Z,1.30
2022-08-04T14:29:26.373Z,1.50
2022-08-04T14:29:31.683Z,1.40
2022-08-04T14:31:06.127Z,1.60
2022-08-04T14:32:14.591Z,1.40
2022-08-04T14:32:30.871Z,1.40
2022-08-04T14:34:01.282Z,1.40
2022-08-04T14:34:29.760Z,1.60
2022-08-04T14:35:49.962Z,1.50
2022-08-04T14:36:29.715Z,1.40
2022-08-04T14:37:28.679Z,1.30
2022-08-04T14:38:28.730Z,1.40
2022-08-04T14:40:17.787Z,1.40
2022-08-04T14:41:15.355Z,1.60
2022-08-04T14:41:31.696Z,1.60
2022-08-04T14:42:40.676Z,1.30
2022-08-04T14:43:38.688Z,1.70
2022-08-04T14:45:05.288Z,1.70
2022-08-04T14:46:00.380Z,1.70
2022-08-04T14:46:36.181Z,1.70
2022-08-04T14:47:29.602Z,1.60
2022-08-04T14:48:28.582Z,1.50
2022-08-04T14:49:37.338Z,1.50
2022-08-04T14:50:28.581Z,1.50
2022-08-04T14:51:36.452Z,1.40
2022-08-04T14:52:29.578Z,1.50
2022-08-04T14:53:28.534Z,1.40
2022-08-04T14:54:28.546Z,1.50
2022-08-04T14:55:49.181Z,1.40
2022-08-04T14:56:46.062Z,1.50
2022-08-04T14:57:30.494Z,1.30
2022-08-04T15:01:26.702Z,1.40
2022-08-04T15:02:29.878Z,1.40
2022-08-04T15:03:25.621Z,1.50
2022-08-04T15:04:25.666Z,1.60
2022-08-04T15:05:55.155Z,1.50
2022-08-04T15:06:26.698Z,1.70
2022-08-04T15:07:25.571Z,1.70
2022-08-04T15:08:29.189Z,1.60
2022-08-04T15:09:26.547Z,1.60
2022-08-04T15:10:25.545Z,1.60
2022-08-04T15:11:25.564Z,1.30
2022-08-04T15:12:25.563Z,1.90
2022-08-04T15:13:25.543Z,1.30
2022-08-04T15:14:37.782Z,1.40
2022-08-04T15:15:36.856Z,1.40
2022-08-04T15:16:27.506Z,1.50
2022-08-04T15:17:30.061Z,1.70
2022-08-04T15:18:26.482Z,1.40
2022-08-04T15:19:25.474Z,1.80
2022-08-04T15:20:25.456Z,1.40
2022-08-04T15:21:25.478Z,1.50
2022-08-04T15:22:25.465Z,1.70
2022-08-04T15:23:25.498Z,1.50
2022-08-04T15:24:26.453Z,1.90
2022-08-04T15:25:25.411Z,1.30
2022-08-04T15:26:25.407Z,1.70
2022-08-04T15:27:25.393Z,1.60
2022-08-04T15:28:25.365Z,1.60
2022-08-04T15:29:25.356Z,1.60
2022-08-04T15:30:25.383Z,1.50
2022-08-04T15:32:03.909Z,1.70
2022-08-04T15:32:26.380Z,1.50
2022-08-04T15:33:25.351Z,1.50
2022-08-04T15:34:26.331Z,1.50
2022-08-04T15:35:30.892Z,1.50
2022-08-04T15:36:27.332Z,1.70
2022-08-04T15:37:25.293Z,1.60
2022-08-04T15:38:27.683Z,1.40
2022-08-04T15:39:26.318Z,1.70
2022-08-04T15:40:33.033Z,1.40
2022-08-04T15:41:26.321Z,1.70
2022-08-04T15:42:25.394Z,1.30
2022-08-04T15:43:25.250Z,1.70
2022-08-04T15:44:25.262Z,1.60
2022-08-04T15:46:41.490Z,1.70
2022-08-04T15:46:41.521Z,1.50
2022-08-04T15:47:26.234Z,1.80
2022-08-04T15:48:25.239Z,1.30
2022-08-04T15:49:25.201Z,1.50
2022-08-04T15:50:28.370Z,1.50
2022-08-04T15:51:31.946Z,1.50
2022-08-04T15:52:26.408Z,1.40
2022-08-04T15:54:01.352Z,1.50
2022-08-04T15:54:27.726Z,1.40
2022-08-04T15:55:27.146Z,1.70
2022-08-04T15:56:26.404Z,1.60
2022-08-04T15:57:25.115Z,1.80
2022-08-04T15:58:25.203Z,2.00
2022-08-04T15:59:25.249Z,1.80
2022-08-04T16:00:25.120Z,1.70
2022-08-04T16:01:25.327Z,1.40
2022-08-04T16:02:25.320Z,1.50
2022-08-04T16:24:51.401Z,1.40
2022-08-04T16:25:51.391Z,1.60
2022-08-04T16:26:55.100Z,1.60
2022-08-04T16:27:52.374Z,1.90
2022-08-04T16:28:52.408Z,1.70
2022-08-04T16:29:51.355Z,1.60
2022-08-04T16:30:51.352Z,1.50
2022-08-04T16:31:51.345Z,1.50
2022-08-04T16:32:51.333Z,1.50
2022-08-04T16:33:51.314Z,1.50
2022-08-04T16:34:54.479Z,1.40
2022-08-04T16:35:51.297Z,1.50
2022-08-04T16:36:52.302Z,1.60
2022-08-04T16:37:51.272Z,1.50
2022-08-04T16:38:51.490Z,1.50
2022-08-04T16:39:51.939Z,1.60
2022-08-04T16:40:51.244Z,1.50
2022-08-04T16:41:51.244Z,1.60
2022-08-04T16:42:51.223Z,1.50
2022-08-04T16:43:51.215Z,1.50
2022-08-04T16:44:53.469Z,1.80
2022-08-04T16:45:51.203Z,1.70
2022-08-04T16:47:08.391Z,1.40
2022-08-04T16:47:52.178Z,1.40
2022-08-04T16:48:51.159Z,1.60
2022-08-04T16:49:52.123Z,1.30
2022-08-04T16:50:51.139Z,1.50
2022-08-04T16:51:51.148Z,1.30
2022-08-04T16:52:51.123Z,1.50
2022-08-04T16:54:04.600Z,1.80
2022-08-04T16:55:04.824Z,1.60
2022-08-04T16:55:52.132Z,1.50
2022-08-04T16:56:51.100Z,1.60
2022-08-04T16:57:51.074Z,2.00
2022-08-04T16:58:53.936Z,1.40
2022-08-04T16:59:51.050Z,1.40
2022-08-04T17:01:53.479Z,1.60
2022-08-04T17:02:52.363Z,1.60
2022-08-04T17:03:55.605Z,1.40
2022-08-04T17:05:01.039Z,1.40
2022-08-04T17:06:52.052Z,1.50
2022-08-04T17:08:07.121Z,1.50
2022-08-04T17:09:28.266Z,1.60
2022-08-04T17:11:18.967Z,1.30
2022-08-04T17:12:19.013Z,1.50
2022-08-04T17:14:02.674Z,1.80
2022-08-04T17:14:20.072Z,3.00
2022-08-04T17:15:19.128Z,2.30
2022-08-04T17:16:21.705Z,2.80
2022-08-04T17:17:22.599Z,3.10
2022-08-04T17:18:23.498Z,2.60
2022-08-04T17:19:26.991Z,2.10
2022-08-04T17:20:18.954Z,1.40
2022-08-04T17:21:18.885Z,1.80
2022-08-04T17:22:19.527Z,1.90
2022-08-04T17:23:18.869Z,1.80
2022-08-04T17:24:19.859Z,1.40
2022-08-04T17:25:18.858Z,1.40
2022-08-04T17:26:18.834Z,1.40
2022-08-04T17:28:19.355Z,1.30
2022-08-04T17:28:26.862Z,1.40
2022-08-04T17:29:20.271Z,1.40
2022-08-04T17:30:47.846Z,1.40
2022-08-04T17:31:18.801Z,1.30
2022-08-04T17:32:18.810Z,1.30
2022-08-04T17:33:18.764Z,1.40
2022-08-04T17:34:19.242Z,2.20
2022-08-04T17:35:18.753Z,1.80
2022-08-04T17:36:18.751Z,2.10
2022-08-04T17:37:38.096Z,2.70
2022-08-04T17:38:19.722Z,2.50
2022-08-04T17:39:18.788Z,2.10
2022-08-04T17:40:25.741Z,2.20
2022-08-04T17:41:30.143Z,2.20
2022-08-04T17:42:19.684Z,1.60
2022-08-04T17:44:04.185Z,1.90
2022-08-04T17:44:19.668Z,1.60
2022-08-04T17:45:49.119Z,1.60
2022-08-04T17:46:28.517Z,1.60
2022-08-04T17:47:19.636Z,1.80
2022-08-04T17:48:24.514Z,1.90
2022-08-04T17:49:19.625Z,1.80
2022-08-04T17:50:18.619Z,2.20
2022-08-04T17:51:18.613Z,1.90
2022-08-04T17:52:32.377Z,1.50
2022-08-04T17:53:21.847Z,1.80
2022-08-04T17:54:18.579Z,1.80
2022-08-04T17:55:20.671Z,1.30
2022-08-04T17:56:18.581Z,1.60
2022-08-04T17:57:19.359Z,1.60
2022-08-04T17:58:20.884Z,1.60
2022-08-04T17:59:52.185Z,1.80
2022-08-04T18:00:20.033Z,1.80
2022-08-04T18:01:25.713Z,1.60
2022-08-04T18:02:19.525Z,2.00
2022-08-04T18:03:22.733Z,1.90
2022-08-04T18:04:18.498Z,1.70
2022-08-04T18:05:18.487Z,1.90
2022-08-04T18:06:18.479Z,1.90
2022-08-04T18:08:39.661Z,1.80
2022-08-04T18:08:39.779Z,1.70
2022-08-04T18:09:21.916Z,1.90
2022-08-04T18:10:32.824Z,1.80
2022-08-04T18:11:21.994Z,1.90
2022-08-04T18:12:18.439Z,2.30
2022-08-04T18:13:18.420Z,1.80
2022-08-04T18:14:18.415Z,2.00
2022-08-04T18:15:19.402Z,2.20
2022-08-04T18:16:22.071Z,2.40
2022-08-04T18:18:20.457Z,2.40
2022-08-04T18:18:22.708Z,2.10
2022-08-04T18:19:19.151Z,2.30
2022-08-04T18:20:18.361Z,1.90
2022-08-04T18:21:18.356Z,2.00
2022-08-04T18:23:19.325Z,1.70
2022-08-04T18:24:19.322Z,2.10
2022-08-04T18:25:19.313Z,1.80
2022-08-04T18:26:18.318Z,2.00
2022-08-04T18:27:19.295Z,1.80
2022-08-04T18:28:26.529Z,1.90
2022-08-04T18:29:30.994Z,1.80
2022-08-04T18:30:38.439Z,1.80
2022-08-04T18:31:19.267Z,1.90
2022-08-04T18:32:18.251Z,1.70
2022-08-04T18:33:40.148Z,2.00
2022-08-04T18:34:22.220Z,1.80
2022-08-04T18:35:19.246Z,1.80
2022-08-04T18:36:33.281Z,2.30
2022-08-04T18:38:03.178Z,3.20
2022-08-04T18:38:23.474Z,3.20
2022-08-04T18:39:18.248Z,2.40
2022-08-04T18:40:26.505Z,1.90
2022-08-04T18:41:19.227Z,1.70
2022-08-04T18:42:18.158Z,2.00
2022-08-04T18:43:18.147Z,3.10
2022-08-04T18:44:19.139Z,3.60
2022-08-04T18:45:19.314Z,3.10
2022-08-04T18:46:18.155Z,3.40
2022-08-04T18:47:22.340Z,3.50
2022-08-04T18:48:19.104Z,3.30
2022-08-04T18:50:31.768Z,3.00
2022-08-04T18:50:58.480Z,2.70
2022-08-04T18:51:23.579Z,2.40
2022-08-04T18:52:19.063Z,2.10
2022-08-04T18:53:19.056Z,2.10
2022-08-04T18:54:18.049Z,2.10
2022-08-04T18:55:55.647Z,2.20
2022-08-04T18:56:30.042Z,2.00
2022-08-04T18:58:27.092Z,2.10
2022-08-04T18:59:19.414Z,2.20
2022-08-04T19:00:19.994Z,2.00
2022-08-04T19:01:17.984Z,2.20
2022-08-04T19:02:18.076Z,2.00
2022-08-04T19:03:22.831Z,1.90
2022-08-04T19:04:32.874Z,2.20
2022-08-04T19:05:19.368Z,2.00
2022-08-04T19:06:17.939Z,1.90
2022-08-04T19:07:28.978Z,1.70
2022-08-04T19:08:32.875Z,2.10
2022-08-04T19:09:21.110Z,2.20
2022-08-04T19:10:23.688Z,2.20
2022-08-04T19:11:38.265Z,2.10
2022-08-04T19:12:26.665Z,2.70
2022-08-04T19:13:25.451Z,1.90
2022-08-04T19:14:18.867Z,2.00
2022-08-04T19:15:19.188Z,2.10
2022-08-04T19:16:21.038Z,2.50
2022-08-04T19:17:17.847Z,2.30
2022-08-04T19:18:19.001Z,2.30
2022-08-04T19:19:17.817Z,2.30
2022-08-04T19:20:25.625Z,2.10
2022-08-04T19:21:18.796Z,2.10
2022-08-04T19:22:35.665Z,2.30
2022-08-04T19:24:27.077Z,2.20
2022-08-04T19:24:31.296Z,1.90
2022-08-04T19:25:58.430Z,2.20
2022-08-04T19:26:27.745Z,2.10
2022-08-04T19:27:18.827Z,2.30
2022-08-04T19:28:17.765Z,2.10
2022-08-04T19:29:17.719Z,2.10
2022-08-04T19:30:17.725Z,2.20
2022-08-04T19:31:19.139Z,2.50
2022-08-04T19:32:18.705Z,2.30
2022-08-04T19:33:17.681Z,2.40
2022-08-04T19:34:34.937Z,2.50
2022-08-04T19:35:18.662Z,2.30
2022-08-04T19:36:18.769Z,2.20
2022-08-04T19:37:57.232Z,2.20
2022-08-04T19:38:20.760Z,2.60
2022-08-04T19:39:18.775Z,2.50
2022-08-04T19:40:33.692Z,2.00
2022-08-04T19:41:19.720Z,2.10
2022-08-04T19:42:18.733Z,2.20
2022-08-04T19:43:18.710Z,2.10
2022-08-04T19:44:18.707Z,2.50
2022-08-04T19:45:18.687Z,2.20
2022-08-04T19:46:19.689Z,2.50
2022-08-04T19:48:16.097Z,2.10
2022-08-04T19:48:20.736Z,2.30
2022-08-04T19:50:02.999Z,2.30
2022-08-04T19:50:19.654Z,2.20
2022-08-04T19:51:18.632Z,2.30
2022-08-04T19:52:34.269Z,2.40
2022-08-04T19:53:20.206Z,2.40
2022-08-04T19:54:23.795Z,2.40
2022-08-04T19:55:19.596Z,2.50
2022-08-04T19:56:18.592Z,2.50
2022-08-04T19:57:19.534Z,2.60
2022-08-04T19:58:18.574Z,2.40
2022-08-04T19:59:18.566Z,2.40
2022-08-04T20:00:33.015Z,2.50
2022-08-04T20:01:33.339Z,2.40
2022-08-04T20:02:19.544Z,2.50
2022-08-04T20:03:20.321Z,2.50
2022-08-04T20:04:18.508Z,2.30
2022-08-04T20:05:18.504Z,2.70
2022-08-04T20:06:19.490Z,2.30
2022-08-04T20:07:18.505Z,2.60
2022-08-04T20:08:18.475Z,2.70
2022-08-04T20:09:25.636Z,2.80
2022-08-04T20:10:23.749Z,2.30
2022-08-04T20:11:18.984Z,2.50
2022-08-04T20:12:18.458Z,2.50
2022-08-04T20:13:18.430Z,2.50
2022-08-04T20:14:18.419Z,2.70
2022-08-04T20:15:18.415Z,2.60
2022-08-04T20:16:29.247Z,2.60
2022-08-04T20:17:19.401Z,2.60
2022-08-04T20:18:35.926Z,2.30
2022-08-04T20:19:19.401Z,2.50
2022-08-04T20:20:18.380Z,2.80
2022-08-04T20:21:22.725Z,2.60
2022-08-04T20:22:51.725Z,2.70
2022-08-04T20:23:19.346Z,2.50
2022-08-04T20:24:37.648Z,2.90
2022-08-04T20:25:36.312Z,2.50
2022-08-04T20:26:19.320Z,2.50
2022-08-04T20:27:18.318Z,2.80
2022-08-04T20:28:25.676Z,2.90
2022-08-04T20:29:37.084Z,2.80
2022-08-04T20:30:19.275Z,3.00
2022-08-04T20:31:18.672Z,2.80
2022-08-04T20:32:19.541Z,2.60
2022-08-04T20:33:18.258Z,2.70
2022-08-04T20:34:18.238Z,2.80
2022-08-04T20:35:18.229Z,2.70
2022-08-04T20:36:18.232Z,2.80
2022-08-04T20:37:18.205Z,2.60
2022-08-04T20:38:33.723Z,3.00
2022-08-04T20:39:19.202Z,2.60
2022-08-04T20:40:18.178Z,2.20
2022-08-04T20:41:19.034Z,2.50
2022-08-04T20:42:18.157Z,2.90
2022-08-04T20:43:19.182Z,2.70
2022-08-04T20:44:24.131Z,2.40
2022-08-04T20:45:22.682Z,2.80
2022-08-04T20:46:28.618Z,2.60
2022-08-04T20:47:19.120Z,2.70
2022-08-04T20:48:18.119Z,2.60
2022-08-04T20:49:18.102Z,2.70
2022-08-04T20:50:18.117Z,2.20
2022-08-04T20:51:19.085Z,2.70
2022-08-04T20:52:20.674Z,2.60
2022-08-04T20:53:19.091Z,2.70
2022-08-04T20:54:26.700Z,2.40
2022-08-04T20:55:19.058Z,2.70
2022-08-04T20:56:19.125Z,2.60
2022-08-04T20:57:19.030Z,2.50
2022-08-04T20:58:19.025Z,2.70
2022-08-04T20:59:19.003Z,2.90
2022-08-04T21:00:26.249Z,2.80
2022-08-04T21:01:19.046Z,2.40
2022-08-04T21:02:18.034Z,2.90
2022-08-04T21:03:17.987Z,2.50
2022-08-04T21:04:27.483Z,2.70
2022-08-04T21:05:18.935Z,2.40
2022-08-04T21:06:17.950Z,2.70
2022-08-04T21:07:17.984Z,3.20
2022-08-04T21:08:17.932Z,2.60
2022-08-04T21:09:22.653Z,3.00
2022-08-04T21:10:21.824Z,2.40
2022-08-04T21:11:17.933Z,2.60
2022-08-04T21:12:28.613Z,2.70
2022-08-04T21:13:18.879Z,2.60
2022-08-04T21:14:17.870Z,2.50
2022-08-04T21:15:25.097Z,2.40
2022-08-04T21:16:54.058Z,2.40
2022-08-04T21:17:18.849Z,2.40
2022-08-04T21:18:18.841Z,2.20
2022-08-04T21:19:18.822Z,2.90
2022-08-04T21:20:27.864Z,2.50
2022-08-04T21:21:18.797Z,2.60
2022-08-04T21:22:22.561Z,2.50
2022-08-04T21:23:18.775Z,2.90
2022-08-04T21:24:17.763Z,2.40
2022-08-04T21:25:17.757Z,3.10
2022-08-04T21:26:17.743Z,2.40
2022-08-04T21:27:17.750Z,2.50
2022-08-04T21:28:20.451Z,2.60
2022-08-04T21:29:18.713Z,2.30
2022-08-04T21:30:24.109Z,2.30
2022-08-04T21:31:21.937Z,2.50
2022-08-04T21:32:17.708Z,2.70
2022-08-04T21:33:17.678Z,2.40
2022-08-04T21:34:35.854Z,2.70
2022-08-04T21:35:18.662Z,2.50
2022-08-04T21:36:19.827Z,2.20
2022-08-04T21:37:17.653Z,2.80
2022-08-04T21:38:18.194Z,2.60
2022-08-04T21:39:17.689Z,2.50
2022-08-04T21:40:30.695Z,2.50
2022-08-04T21:41:24.329Z,2.80
2022-08-04T21:42:29.581Z,2.60
2022-08-04T21:43:19.588Z,2.90
2022-08-04T21:44:18.294Z,2.60
2022-08-04T21:45:17.573Z,2.70
2022-08-04T21:46:18.310Z,2.30
2022-08-04T21:47:23.802Z,2.50
2022-08-04T21:48:18.528Z,2.60
2022-08-04T21:49:17.523Z,2.70
2022-08-04T21:50:19.607Z,2.60
2022-08-04T21:51:57.175Z,2.80
2022-08-04T21:52:18.511Z,2.30
2022-08-04T21:53:19.766Z,2.70
2022-08-04T21:54:17.590Z,2.30
2022-08-04T21:55:17.465Z,2.60
2022-08-04T21:56:17.454Z,2.60
2022-08-04T21:57:18.444Z,2.30
2022-08-04T21:58:18.451Z,2.40
2022-08-04T21:59:18.423Z,2.60
2022-08-04T22:00:19.682Z,2.70
2022-08-04T22:01:25.834Z,2.70
2022-08-04T22:02:18.531Z,2.70
2022-08-04T22:03:28.696Z,3.00
2022-08-04T22:04:18.381Z,2.50
2022-08-04T22:05:17.372Z,2.50
2022-08-04T22:06:17.680Z,2.90
2022-08-04T22:07:17.547Z,2.60
2022-08-04T22:08:19.638Z,2.40
2022-08-04T22:09:17.331Z,2.80
2022-08-04T22:10:18.519Z,2.60
2022-08-04T22:11:18.308Z,3.20
2022-08-04T22:12:21.140Z,2.80
2022-08-04T22:14:29.517Z,2.80
2022-08-04T22:16:02.653Z,3.10
2022-08-04T22:16:18.271Z,2.80
2022-08-04T22:17:23.640Z,2.90
2022-08-04T22:18:18.240Z,3.10
2022-08-04T22:19:24.017Z,2.80
2022-08-04T22:20:27.399Z,3.30
2022-08-04T22:21:18.217Z,3.00
2022-08-04T22:22:25.610Z,3.00
2022-08-04T22:23:19.308Z,2.90
2022-08-04T22:24:18.192Z,2.80
2022-08-04T22:25:17.567Z,3.00
2022-08-04T22:26:20.066Z,2.80
2022-08-04T22:27:18.165Z,3.10
2022-08-04T22:28:18.780Z,2.80
2022-08-04T22:29:17.131Z,3.00
2022-08-04T22:30:18.028Z,3.00
2022-08-04T22:31:23.402Z,3.10
2022-08-04T22:32:18.108Z,3.00
2022-08-04T22:33:17.087Z,3.20
2022-08-04T22:34:17.086Z,2.70
2022-08-04T22:35:35.524Z,3.10
2022-08-04T22:36:18.055Z,2.90
2022-08-04T22:37:17.082Z,2.80
2022-08-04T22:38:21.886Z,3.20
2022-08-04T22:39:18.067Z,3.00
2022-08-04T22:40:17.022Z,2.80
2022-08-04T22:41:17.008Z,3.20
2022-08-04T22:42:17.009Z,3.20
2022-08-04T22:43:31.933Z,2.90
2022-08-04T22:44:17.975Z,3.20
2022-08-04T22:45:16.973Z,3.40
2022-08-04T22:46:16.961Z,3.20
2022-08-04T22:47:20.377Z,3.00
2022-08-04T22:48:17.946Z,3.40
2022-08-04T22:49:16.934Z,3.40
2022-08-04T22:50:27.026Z,2.80
2022-08-04T22:51:18.907Z,2.90
2022-08-04T22:52:26.310Z,2.90
2022-08-04T22:53:18.231Z,2.60
2022-08-04T22:54:16.881Z,3.20
2022-08-04T22:55:16.869Z,3.20
2022-08-04T22:56:37.176Z,3.30
2022-08-04T22:57:17.872Z,3.00
2022-08-04T22:58:17.918Z,2.80
2022-08-04T22:59:16.836Z,3.00
2022-08-04T23:00:16.826Z,2.70
2022-08-04T23:01:16.861Z,2.80
2022-08-04T23:02:16.814Z,3.30
2022-08-04T23:03:37.681Z,3.30
2022-08-04T23:04:17.791Z,3.30
2022-08-04T23:05:16.774Z,3.10
2022-08-04T23:06:16.762Z,3.20
2022-08-04T23:07:17.765Z,3.30
2022-08-04T23:08:17.746Z,3.10
2022-08-04T23:09:16.737Z,3.10
2022-08-04T23:10:16.724Z,3.00
2022-08-04T23:11:17.718Z,3.10
2022-08-04T23:12:25.879Z,3.20
2022-08-04T23:13:18.693Z,3.10
2022-08-04T23:14:16.689Z,3.00
2022-08-04T23:15:16.672Z,3.10